sensor_id;sensor_type;location;lat;lon;timestamp;temperature;humidity
28087;DHT22;15392;48.912;8.380;2024-01-15T00:01:23;4.10;52.60
28087;DHT22;15392;48.912;8.380;2024-01-15T00:04:09;4.10;52.60
28087;DHT22;15392;48.912;8.380;2024-01-15T00:06:55;4.10;52.60
28087;DHT22;15392;48.912;8.380;2024-01-15T00:09:42;4.10;52.60
28087;DHT22;15392;48.912;8.380;2024-01-15T00:12:28;4.10;52.50
28087;DHT22;15392;48.912;8.380;2024-01-15T00:15:14;4.10;52.50
28087;DHT22;15392;48.912;8.380;2024-01-15T00:18:01;4.10;52.50
28087;DHT22;15392;48.912;8.380;2024-01-15T00:20:47;4.10;52.50
28087;DHT22;15392;48.912;8.380;2024-01-15T00:23:33;4.10;52.50
28087;DHT22;15392;48.912;8.380;2024-01-15T00:26:19;4.10;52.50
28087;DHT22;15392;48.912;8.380;2024-01-15T00:29:07;4.10;52.40
28087;DHT22;15392;48.912;8.380;2024-01-15T00:31:53;4.10;52.40
28087;DHT22;15392;48.912;8.380;2024-01-15T00:34:39;4.10;52.40
28087;DHT22;15392;48.912;8.380;2024-01-15T00:37:25;4.10;52.40
28087;DHT22;15392;48.912;8.380;2024-01-15T00:40:11;4.10;52.50
28087;DHT22;15392;48.912;8.380;2024-01-15T00:43:00;4.10;52.50
28087;DHT22;15392;48.912;8.380;2024-01-15T00:45:48;4.10;52.50
28087;DHT22;15392;48.912;8.380;2024-01-15T00:48:34;4.10;52.50
28087;DHT22;15392;48.912;8.380;2024-01-15T00:51:20;4.20;52.50
28087;DHT22;15392;48.912;8.380;2024-01-15T00:54:06;4.10;52.50
28087;DHT22;15392;48.912;8.380;2024-01-15T00:56:52;4.10;52.50
28087;DHT22;15392;48.912;8.380;2024-01-15T00:59:39;4.10;52.50
28087;DHT22;15392;48.912;8.380;2024-01-15T01:02:26;4.10;52.50
28087;DHT22;15392;48.912;8.380;2024-01-15T01:05:12;4.10;52.50
28087;DHT22;15392;48.912;8.380;2024-01-15T01:07:58;4.10;52.50
28087;DHT22;15392;48.912;8.380;2024-01-15T01:10:44;4.10;52.50
28087;DHT22;15392;48.912;8.380;2024-01-15T01:13:31;4.10;52.50
28087;DHT22;15392;48.912;8.380;2024-01-15T01:16:17;4.20;52.60
28087;DHT22;15392;48.912;8.380;2024-01-15T01:19:03;4.10;52.50
28087;DHT22;15392;48.912;8.380;2024-01-15T01:21:49;4.20;52.60
28087;DHT22;15392;48.912;8.380;2024-01-15T01:24:36;4.10;52.60
28087;DHT22;15392;48.912;8.380;2024-01-15T01:27:22;4.10;52.70
28087;DHT22;15392;48.912;8.380;2024-01-15T01:30:08;4.10;52.70
28087;DHT22;15392;48.912;8.380;2024-01-15T01:32:55;4.10;52.70
28087;DHT22;15392;48.912;8.380;2024-01-15T01:35:41;4.10;52.70
28087;DHT22;15392;48.912;8.380;2024-01-15T01:38:27;4.10;52.70
28087;DHT22;15392;48.912;8.380;2024-01-15T01:41:13;4.10;53.10
28087;DHT22;15392;48.912;8.380;2024-01-15T01:43:59;4.10;52.80
28087;DHT22;15392;48.912;8.380;2024-01-15T01:46:45;4.10;52.80
28087;DHT22;15392;48.912;8.380;2024-01-15T01:49:32;4.10;52.90
28087;DHT22;15392;48.912;8.380;2024-01-15T01:52:18;4.10;53.00
28087;DHT22;15392;48.912;8.380;2024-01-15T01:55:06;4.00;53.00
28087;DHT22;15392;48.912;8.380;2024-01-15T01:57:53;4.10;53.00
28087;DHT22;15392;48.912;8.380;2024-01-15T02:00:40;4.00;52.90
28087;DHT22;15392;48.912;8.380;2024-01-15T02:03:27;4.10;53.10
28087;DHT22;15392;48.912;8.380;2024-01-15T02:06:14;4.10;53.10
28087;DHT22;15392;48.912;8.380;2024-01-15T02:09:00;4.10;53.10
28087;DHT22;15392;48.912;8.380;2024-01-15T02:11:47;4.10;53.20
28087;DHT22;15392;48.912;8.380;2024-01-15T02:14:33;4.10;53.10
28087;DHT22;15392;48.912;8.380;2024-01-15T02:17:19;4.10;53.20
28087;DHT22;15392;48.912;8.380;2024-01-15T02:20:06;4.10;53.10
28087;DHT22;15392;48.912;8.380;2024-01-15T02:22:53;4.20;53.20
28087;DHT22;15392;48.912;8.380;2024-01-15T02:25:46;4.20;53.20
28087;DHT22;15392;48.912;8.380;2024-01-15T02:28:33;4.20;53.30
28087;DHT22;15392;48.912;8.380;2024-01-15T02:31:19;4.20;53.20
28087;DHT22;15392;48.912;8.380;2024-01-15T02:34:05;4.20;53.20
28087;DHT22;15392;48.912;8.380;2024-01-15T02:36:51;4.20;53.30
28087;DHT22;15392;48.912;8.380;2024-01-15T02:39:37;4.30;54.00
28087;DHT22;15392;48.912;8.380;2024-01-15T02:42:23;4.30;53.40
28087;DHT22;15392;48.912;8.380;2024-01-15T02:45:09;4.30;53.40
28087;DHT22;15392;48.912;8.380;2024-01-15T02:47:55;4.30;53.40
28087;DHT22;15392;48.912;8.380;2024-01-15T02:50:41;4.30;53.40
28087;DHT22;15392;48.912;8.380;2024-01-15T02:53:28;4.30;53.60
28087;DHT22;15392;48.912;8.380;2024-01-15T02:56:14;4.30;53.50
28087;DHT22;15392;48.912;8.380;2024-01-15T02:59:00;4.40;53.50
28087;DHT22;15392;48.912;8.380;2024-01-15T03:01:46;4.40;53.50
28087;DHT22;15392;48.912;8.380;2024-01-15T03:04:33;4.40;53.40
28087;DHT22;15392;48.912;8.380;2024-01-15T03:07:19;4.40;53.50
28087;DHT22;15392;48.912;8.380;2024-01-15T03:10:06;4.40;53.40
28087;DHT22;15392;48.912;8.380;2024-01-15T03:12:52;4.40;53.30
28087;DHT22;15392;48.912;8.380;2024-01-15T03:15:39;4.40;53.30
28087;DHT22;15392;48.912;8.380;2024-01-15T03:18:25;4.40;53.30
28087;DHT22;15392;48.912;8.380;2024-01-15T03:21:11;4.40;53.40
28087;DHT22;15392;48.912;8.380;2024-01-15T03:23:57;4.40;53.40
28087;DHT22;15392;48.912;8.380;2024-01-15T03:26:43;4.40;53.40
28087;DHT22;15392;48.912;8.380;2024-01-15T03:29:29;4.40;53.30
28087;DHT22;15392;48.912;8.380;2024-01-15T03:32:15;4.50;53.40
28087;DHT22;15392;48.912;8.380;2024-01-15T03:35:02;4.50;53.40
28087;DHT22;15392;48.912;8.380;2024-01-15T03:37:48;4.50;53.40
28087;DHT22;15392;48.912;8.380;2024-01-15T03:40:34;4.50;53.30
28087;DHT22;15392;48.912;8.380;2024-01-15T03:43:20;4.50;53.40
28087;DHT22;15392;48.912;8.380;2024-01-15T03:46:06;4.50;53.30
28087;DHT22;15392;48.912;8.380;2024-01-15T03:48:52;4.50;53.40
28087;DHT22;15392;48.912;8.380;2024-01-15T03:51:38;4.60;53.30
28087;DHT22;15392;48.912;8.380;2024-01-15T03:54:25;4.50;53.40
28087;DHT22;15392;48.912;8.380;2024-01-15T03:57:11;4.60;53.40
28087;DHT22;15392;48.912;8.380;2024-01-15T03:59:57;4.60;53.30
28087;DHT22;15392;48.912;8.380;2024-01-15T04:02:43;4.60;53.30
28087;DHT22;15392;48.912;8.380;2024-01-15T04:05:30;4.60;53.40
28087;DHT22;15392;48.912;8.380;2024-01-15T04:08:16;4.70;53.40
28087;DHT22;15392;48.912;8.380;2024-01-15T04:11:02;4.70;53.40
28087;DHT22;15392;48.912;8.380;2024-01-15T04:13:48;4.70;53.40
28087;DHT22;15392;48.912;8.380;2024-01-15T04:16:34;4.70;53.50
28087;DHT22;15392;48.912;8.380;2024-01-15T04:19:20;4.70;53.50
28087;DHT22;15392;48.912;8.380;2024-01-15T04:22:06;4.80;53.50
28087;DHT22;15392;48.912;8.380;2024-01-15T04:24:52;4.70;53.50
28087;DHT22;15392;48.912;8.380;2024-01-15T04:27:38;4.80;53.50
28087;DHT22;15392;48.912;8.380;2024-01-15T04:30:24;4.80;53.50
28087;DHT22;15392;48.912;8.380;2024-01-15T04:33:10;4.80;53.50
28087;DHT22;15392;48.912;8.380;2024-01-15T04:35:56;4.80;53.50
28087;DHT22;15392;48.912;8.380;2024-01-15T04:38:42;4.80;53.60
28087;DHT22;15392;48.912;8.380;2024-01-15T04:41:28;4.80;53.40
28087;DHT22;15392;48.912;8.380;2024-01-15T04:44:15;4.80;53.60
28087;DHT22;15392;48.912;8.380;2024-01-15T04:47:01;4.80;53.60
28087;DHT22;15392;48.912;8.380;2024-01-15T04:49:47;4.80;53.60
28087;DHT22;15392;48.912;8.380;2024-01-15T04:52:34;4.80;53.70
28087;DHT22;15392;48.912;8.380;2024-01-15T04:55:20;4.80;53.60
28087;DHT22;15392;48.912;8.380;2024-01-15T04:58:06;4.80;53.60
28087;DHT22;15392;48.912;8.380;2024-01-15T05:00:52;4.80;53.60
28087;DHT22;15392;48.912;8.380;2024-01-15T05:03:40;4.80;53.60
28087;DHT22;15392;48.912;8.380;2024-01-15T05:06:26;4.80;53.80
28087;DHT22;15392;48.912;8.380;2024-01-15T05:09:12;4.80;53.70
28087;DHT22;15392;48.912;8.380;2024-01-15T05:11:59;4.80;53.60
28087;DHT22;15392;48.912;8.380;2024-01-15T05:14:45;4.80;53.70
28087;DHT22;15392;48.912;8.380;2024-01-15T05:17:31;4.90;53.70
28087;DHT22;15392;48.912;8.380;2024-01-15T05:20:17;4.90;53.70
28087;DHT22;15392;48.912;8.380;2024-01-15T05:23:03;4.80;53.60
28087;DHT22;15392;48.912;8.380;2024-01-15T05:25:49;4.90;53.70
28087;DHT22;15392;48.912;8.380;2024-01-15T05:28:35;4.90;53.60
28087;DHT22;15392;48.912;8.380;2024-01-15T05:31:21;4.90;53.60
28087;DHT22;15392;48.912;8.380;2024-01-15T05:34:08;4.90;53.60
28087;DHT22;15392;48.912;8.380;2024-01-15T05:36:54;4.90;53.60
28087;DHT22;15392;48.912;8.380;2024-01-15T05:39:40;4.90;53.60
28087;DHT22;15392;48.912;8.380;2024-01-15T05:42:26;4.90;53.60
28087;DHT22;15392;48.912;8.380;2024-01-15T05:45:12;4.90;53.50
28087;DHT22;15392;48.912;8.380;2024-01-15T05:47:58;4.90;53.60
28087;DHT22;15392;48.912;8.380;2024-01-15T05:50:44;5.00;53.60
28087;DHT22;15392;48.912;8.380;2024-01-15T05:53:30;5.00;53.60
28087;DHT22;15392;48.912;8.380;2024-01-15T05:56:16;5.00;53.60
28087;DHT22;15392;48.912;8.380;2024-01-15T05:59:02;5.00;53.60
28087;DHT22;15392;48.912;8.380;2024-01-15T06:01:48;5.00;53.60
28087;DHT22;15392;48.912;8.380;2024-01-15T06:04:34;5.00;53.60
28087;DHT22;15392;48.912;8.380;2024-01-15T06:07:20;5.00;53.50
28087;DHT22;15392;48.912;8.380;2024-01-15T06:10:08;5.00;53.50
28087;DHT22;15392;48.912;8.380;2024-01-15T06:12:54;5.00;53.50
28087;DHT22;15392;48.912;8.380;2024-01-15T06:15:40;4.90;53.50
28087;DHT22;15392;48.912;8.380;2024-01-15T06:18:26;4.90;53.40
28087;DHT22;15392;48.912;8.380;2024-01-15T06:21:13;4.90;53.50
28087;DHT22;15392;48.912;8.380;2024-01-15T06:24:00;4.90;53.60
28087;DHT22;15392;48.912;8.380;2024-01-15T06:26:46;4.90;53.50
28087;DHT22;15392;48.912;8.380;2024-01-15T06:29:33;4.90;53.60
28087;DHT22;15392;48.912;8.380;2024-01-15T06:32:19;4.80;53.60
28087;DHT22;15392;48.912;8.380;2024-01-15T06:35:05;4.80;53.60
28087;DHT22;15392;48.912;8.380;2024-01-15T06:37:52;4.90;53.60
28087;DHT22;15392;48.912;8.380;2024-01-15T06:40:38;4.80;53.60
28087;DHT22;15392;48.912;8.380;2024-01-15T06:43:25;4.90;53.60
28087;DHT22;15392;48.912;8.380;2024-01-15T06:46:11;4.90;53.70
28087;DHT22;15392;48.912;8.380;2024-01-15T06:48:57;4.90;53.70
28087;DHT22;15392;48.912;8.380;2024-01-15T06:51:43;4.90;53.60
28087;DHT22;15392;48.912;8.380;2024-01-15T06:54:29;4.90;53.70
28087;DHT22;15392;48.912;8.380;2024-01-15T06:57:15;4.90;53.70
28087;DHT22;15392;48.912;8.380;2024-01-15T07:00:01;4.90;53.70
28087;DHT22;15392;48.912;8.380;2024-01-15T07:02:53;4.90;53.60
28087;DHT22;15392;48.912;8.380;2024-01-15T07:05:39;4.90;53.60
28087;DHT22;15392;48.912;8.380;2024-01-15T07:08:25;5.00;53.70
28087;DHT22;15392;48.912;8.380;2024-01-15T07:11:11;5.00;53.60
28087;DHT22;15392;48.912;8.380;2024-01-15T07:13:57;5.00;53.60
28087;DHT22;15392;48.912;8.380;2024-01-15T07:16:43;5.00;54.30
28087;DHT22;15392;48.912;8.380;2024-01-15T07:19:29;5.10;53.60
28087;DHT22;15392;48.912;8.380;2024-01-15T07:22:15;5.10;53.60
28087;DHT22;15392;48.912;8.380;2024-01-15T07:25:03;5.10;53.60
28087;DHT22;15392;48.912;8.380;2024-01-15T07:27:50;5.10;53.60
28087;DHT22;15392;48.912;8.380;2024-01-15T07:30:36;5.10;53.50
28087;DHT22;15392;48.912;8.380;2024-01-15T07:33:24;5.20;53.50
28087;DHT22;15392;48.912;8.380;2024-01-15T07:36:11;5.20;53.40
28087;DHT22;15392;48.912;8.380;2024-01-15T07:38:57;5.20;53.40
28087;DHT22;15392;48.912;8.380;2024-01-15T07:41:43;5.20;53.40
28087;DHT22;15392;48.912;8.380;2024-01-15T07:44:32;5.20;53.30
28087;DHT22;15392;48.912;8.380;2024-01-15T07:47:19;5.20;53.30
28087;DHT22;15392;48.912;8.380;2024-01-15T07:50:05;5.20;53.40
28087;DHT22;15392;48.912;8.380;2024-01-15T07:52:51;5.20;53.40
28087;DHT22;15392;48.912;8.380;2024-01-15T07:55:38;5.20;53.40
28087;DHT22;15392;48.912;8.380;2024-01-15T07:58:24;5.10;53.30
28087;DHT22;15392;48.912;8.380;2024-01-15T08:01:10;5.20;53.30
28087;DHT22;15392;48.912;8.380;2024-01-15T08:03:57;5.20;53.30
28087;DHT22;15392;48.912;8.380;2024-01-15T08:06:43;5.20;53.40
28087;DHT22;15392;48.912;8.380;2024-01-15T08:09:29;5.20;53.40
28087;DHT22;15392;48.912;8.380;2024-01-15T08:12:15;5.20;53.40
28087;DHT22;15392;48.912;8.380;2024-01-15T08:15:01;5.20;53.40
28087;DHT22;15392;48.912;8.380;2024-01-15T08:17:47;5.20;53.40
28087;DHT22;15392;48.912;8.380;2024-01-15T08:20:33;5.20;53.40
28087;DHT22;15392;48.912;8.380;2024-01-15T08:23:19;5.20;53.40
28087;DHT22;15392;48.912;8.380;2024-01-15T08:26:06;5.20;53.40
28087;DHT22;15392;48.912;8.380;2024-01-15T08:28:52;5.20;53.50
28087;DHT22;15392;48.912;8.380;2024-01-15T08:31:38;5.20;53.50
28087;DHT22;15392;48.912;8.380;2024-01-15T08:34:24;5.30;53.50
28087;DHT22;15392;48.912;8.380;2024-01-15T08:37:10;5.30;53.50
28087;DHT22;15392;48.912;8.380;2024-01-15T08:39:56;5.30;53.50
28087;DHT22;15392;48.912;8.380;2024-01-15T08:42:42;5.30;53.50
28087;DHT22;15392;48.912;8.380;2024-01-15T08:45:28;5.30;53.50
28087;DHT22;15392;48.912;8.380;2024-01-15T08:48:14;5.30;53.70
28087;DHT22;15392;48.912;8.380;2024-01-15T08:51:00;5.30;53.50
28087;DHT22;15392;48.912;8.380;2024-01-15T08:53:46;5.30;53.50
28087;DHT22;15392;48.912;8.380;2024-01-15T08:56:33;5.30;53.50
28087;DHT22;15392;48.912;8.380;2024-01-15T08:59:19;5.30;53.50
28087;DHT22;15392;48.912;8.380;2024-01-15T09:02:10;5.40;53.60
28087;DHT22;15392;48.912;8.380;2024-01-15T09:04:56;5.40;53.50
28087;DHT22;15392;48.912;8.380;2024-01-15T09:07:42;5.40;53.50
28087;DHT22;15392;48.912;8.380;2024-01-15T09:10:28;5.40;53.50
28087;DHT22;15392;48.912;8.380;2024-01-15T09:13:14;5.50;53.50
28087;DHT22;15392;48.912;8.380;2024-01-15T09:16:00;5.50;53.40
28087;DHT22;15392;48.912;8.380;2024-01-15T09:18:46;5.50;53.40
28087;DHT22;15392;48.912;8.380;2024-01-15T09:21:32;5.60;53.40
28087;DHT22;15392;48.912;8.380;2024-01-15T09:24:18;5.60;53.40
28087;DHT22;15392;48.912;8.380;2024-01-15T09:27:05;5.60;53.40
28087;DHT22;15392;48.912;8.380;2024-01-15T09:29:51;5.60;53.40
28087;DHT22;15392;48.912;8.380;2024-01-15T09:32:40;5.70;53.40
28087;DHT22;15392;48.912;8.380;2024-01-15T09:35:26;5.70;53.40
28087;DHT22;15392;48.912;8.380;2024-01-15T09:38:12;5.70;53.40
28087;DHT22;15392;48.912;8.380;2024-01-15T09:40:58;5.70;53.30
28087;DHT22;15392;48.912;8.380;2024-01-15T09:43:45;5.80;53.30
28087;DHT22;15392;48.912;8.380;2024-01-15T09:46:32;5.80;53.30
28087;DHT22;15392;48.912;8.380;2024-01-15T09:49:19;5.90;53.40
28087;DHT22;15392;48.912;8.380;2024-01-15T09:52:06;5.90;53.40
28087;DHT22;15392;48.912;8.380;2024-01-15T09:54:53;5.90;53.30
28087;DHT22;15392;48.912;8.380;2024-01-15T09:57:39;6.00;53.40
28087;DHT22;15392;48.912;8.380;2024-01-15T10:00:26;6.00;53.40
28087;DHT22;15392;48.912;8.380;2024-01-15T10:03:13;6.10;53.40
28087;DHT22;15392;48.912;8.380;2024-01-15T10:05:59;6.00;53.30
28087;DHT22;15392;48.912;8.380;2024-01-15T10:08:50;6.10;53.30
28087;DHT22;15392;48.912;8.380;2024-01-15T10:11:36;6.10;53.30
28087;DHT22;15392;48.912;8.380;2024-01-15T10:14:23;6.10;53.30
28087;DHT22;15392;48.912;8.380;2024-01-15T10:17:12;6.10;53.30
28087;DHT22;15392;48.912;8.380;2024-01-15T10:20:00;6.20;53.40
28087;DHT22;15392;48.912;8.380;2024-01-15T10:22:46;6.20;53.60
28087;DHT22;15392;48.912;8.380;2024-01-15T10:25:33;6.20;53.80
28087;DHT22;15392;48.912;8.380;2024-01-15T10:28:19;6.20;54.20
28087;DHT22;15392;48.912;8.380;2024-01-15T10:31:06;6.20;54.30
28087;DHT22;15392;48.912;8.380;2024-01-15T10:33:52;6.20;54.40
28087;DHT22;15392;48.912;8.380;2024-01-15T10:36:39;6.20;54.50
28087;DHT22;15392;48.912;8.380;2024-01-15T10:39:26;6.20;54.70
28087;DHT22;15392;48.912;8.380;2024-01-15T10:42:12;6.10;55.00
28087;DHT22;15392;48.912;8.380;2024-01-15T10:44:59;6.10;54.90
28087;DHT22;15392;48.912;8.380;2024-01-15T10:47:45;6.10;54.80
28087;DHT22;15392;48.912;8.380;2024-01-15T10:50:32;6.10;54.90
28087;DHT22;15392;48.912;8.380;2024-01-15T10:53:18;6.10;55.20
28087;DHT22;15392;48.912;8.380;2024-01-15T10:56:05;6.10;55.20
28087;DHT22;15392;48.912;8.380;2024-01-15T10:58:52;6.10;55.00
28087;DHT22;15392;48.912;8.380;2024-01-15T11:01:42;6.10;55.20
28087;DHT22;15392;48.912;8.380;2024-01-15T11:04:32;6.10;55.30
28087;DHT22;15392;48.912;8.380;2024-01-15T11:07:22;6.10;55.50
28087;DHT22;15392;48.912;8.380;2024-01-15T11:16:17;6.10;56.30
28087;DHT22;15392;48.912;8.380;2024-01-15T11:19:05;6.00;56.10
28087;DHT22;15392;48.912;8.380;2024-01-15T11:21:53;6.00;57.20
28087;DHT22;15392;48.912;8.380;2024-01-15T11:24:40;6.00;57.00
28087;DHT22;15392;48.912;8.380;2024-01-15T11:27:47;5.90;56.70
28087;DHT22;15392;48.912;8.380;2024-01-15T11:30:37;5.90;57.70
28087;DHT22;15392;48.912;8.380;2024-01-15T11:33:33;5.90;57.70
28087;DHT22;15392;48.912;8.380;2024-01-15T11:36:19;5.80;57.50
28087;DHT22;15392;48.912;8.380;2024-01-15T11:42:14;5.80;58.20
28087;DHT22;15392;48.912;8.380;2024-01-15T11:45:02;5.80;58.30
28087;DHT22;15392;48.912;8.380;2024-01-15T11:48:15;5.80;58.20
28087;DHT22;15392;48.912;8.380;2024-01-15T11:51:03;5.70;58.30
28087;DHT22;15392;48.912;8.380;2024-01-15T11:53:52;5.80;58.30
28087;DHT22;15392;48.912;8.380;2024-01-15T11:56:41;5.70;58.60
28087;DHT22;15392;48.912;8.380;2024-01-15T11:59:27;5.80;58.10
28087;DHT22;15392;48.912;8.380;2024-01-15T12:02:14;5.70;58.00
28087;DHT22;15392;48.912;8.380;2024-01-15T12:05:00;5.70;58.40
28087;DHT22;15392;48.912;8.380;2024-01-15T12:07:48;5.70;58.30
28087;DHT22;15392;48.912;8.380;2024-01-15T12:10:34;5.70;58.50
28087;DHT22;15392;48.912;8.380;2024-01-15T12:13:20;5.80;58.40
28087;DHT22;15392;48.912;8.380;2024-01-15T12:16:07;5.70;58.40
28087;DHT22;15392;48.912;8.380;2024-01-15T12:18:53;5.80;58.50
28087;DHT22;15392;48.912;8.380;2024-01-15T12:21:39;5.80;58.70
28087;DHT22;15392;48.912;8.380;2024-01-15T12:24:27;5.80;58.90
28087;DHT22;15392;48.912;8.380;2024-01-15T12:27:13;5.80;59.00
28087;DHT22;15392;48.912;8.380;2024-01-15T12:29:59;5.80;58.90
28087;DHT22;15392;48.912;8.380;2024-01-15T12:32:45;5.80;58.60
28087;DHT22;15392;48.912;8.380;2024-01-15T12:35:35;5.80;58.90
28087;DHT22;15392;48.912;8.380;2024-01-15T12:38:21;5.80;58.70
28087;DHT22;15392;48.912;8.380;2024-01-15T12:41:24;5.80;58.40
28087;DHT22;15392;48.912;8.380;2024-01-15T12:44:10;5.80;58.70
28087;DHT22;15392;48.912;8.380;2024-01-15T12:46:57;5.80;58.30
28087;DHT22;15392;48.912;8.380;2024-01-15T12:49:46;5.80;58.20
28087;DHT22;15392;48.912;8.380;2024-01-15T12:52:36;5.80;58.30
28087;DHT22;15392;48.912;8.380;2024-01-15T12:55:23;5.80;58.40
28087;DHT22;15392;48.912;8.380;2024-01-15T12:58:09;5.80;59.00
28087;DHT22;15392;48.912;8.380;2024-01-15T13:00:56;5.80;58.20
28087;DHT22;15392;48.912;8.380;2024-01-15T13:03:46;5.90;58.20
28087;DHT22;15392;48.912;8.380;2024-01-15T13:06:41;5.90;58.00
28087;DHT22;15392;48.912;8.380;2024-01-15T13:09:28;5.90;58.00
28087;DHT22;15392;48.912;8.380;2024-01-15T13:12:15;5.90;58.30
28087;DHT22;15392;48.912;8.380;2024-01-15T13:15:01;5.90;58.50
28087;DHT22;15392;48.912;8.380;2024-01-15T13:17:49;5.90;58.10
28087;DHT22;15392;48.912;8.380;2024-01-15T13:20:35;5.90;58.10
28087;DHT22;15392;48.912;8.380;2024-01-15T13:23:21;6.00;58.40
28087;DHT22;15392;48.912;8.380;2024-01-15T13:26:07;6.00;58.10
28087;DHT22;15392;48.912;8.380;2024-01-15T13:28:53;6.00;58.30
28087;DHT22;15392;48.912;8.380;2024-01-15T13:31:39;6.00;58.10
28087;DHT22;15392;48.912;8.380;2024-01-15T13:34:25;6.00;58.30
28087;DHT22;15392;48.912;8.380;2024-01-15T13:37:11;6.00;58.40
28087;DHT22;15392;48.912;8.380;2024-01-15T13:39:57;6.10;58.50
28087;DHT22;15392;48.912;8.380;2024-01-15T13:42:44;6.10;58.80
28087;DHT22;15392;48.912;8.380;2024-01-15T13:45:30;6.10;58.80
28087;DHT22;15392;48.912;8.380;2024-01-15T13:48:16;6.10;58.50
28087;DHT22;15392;48.912;8.380;2024-01-15T13:51:02;6.10;58.30
28087;DHT22;15392;48.912;8.380;2024-01-15T13:53:50;6.10;58.60
28087;DHT22;15392;48.912;8.380;2024-01-15T13:56:39;6.10;58.70
28087;DHT22;15392;48.912;8.380;2024-01-15T13:59:25;6.10;58.70
28087;DHT22;15392;48.912;8.380;2024-01-15T14:02:11;6.10;58.20
28087;DHT22;15392;48.912;8.380;2024-01-15T14:04:57;6.10;58.70
28087;DHT22;15392;48.912;8.380;2024-01-15T14:07:43;6.10;58.30
28087;DHT22;15392;48.912;8.380;2024-01-15T14:10:29;6.20;58.60
28087;DHT22;15392;48.912;8.380;2024-01-15T14:13:15;6.20;58.50
28087;DHT22;15392;48.912;8.380;2024-01-15T14:16:01;6.20;58.30
28087;DHT22;15392;48.912;8.380;2024-01-15T14:18:48;6.20;58.30
28087;DHT22;15392;48.912;8.380;2024-01-15T14:21:34;6.20;58.40
28087;DHT22;15392;48.912;8.380;2024-01-15T14:24:20;6.20;58.40
28087;DHT22;15392;48.912;8.380;2024-01-15T14:27:06;6.20;58.00
28087;DHT22;15392;48.912;8.380;2024-01-15T14:29:52;6.20;57.90
28087;DHT22;15392;48.912;8.380;2024-01-15T14:32:39;6.20;58.00
28087;DHT22;15392;48.912;8.380;2024-01-15T14:35:25;6.30;58.10
28087;DHT22;15392;48.912;8.380;2024-01-15T14:38:11;6.30;58.10
28087;DHT22;15392;48.912;8.380;2024-01-15T14:40:57;6.30;57.80
28087;DHT22;15392;48.912;8.380;2024-01-15T14:43:43;6.40;57.80
28087;DHT22;15392;48.912;8.380;2024-01-15T14:46:30;6.40;57.60
28087;DHT22;15392;48.912;8.380;2024-01-15T14:49:16;6.40;57.90
28087;DHT22;15392;48.912;8.380;2024-01-15T14:52:03;6.40;57.70
28087;DHT22;15392;48.912;8.380;2024-01-15T14:54:49;6.40;57.60
28087;DHT22;15392;48.912;8.380;2024-01-15T14:57:35;6.40;57.70
28087;DHT22;15392;48.912;8.380;2024-01-15T15:00:23;6.40;57.70
28087;DHT22;15392;48.912;8.380;2024-01-15T15:03:09;6.40;57.60
28087;DHT22;15392;48.912;8.380;2024-01-15T15:05:56;6.50;57.50
28087;DHT22;15392;48.912;8.380;2024-01-15T15:08:42;6.40;57.80
28087;DHT22;15392;48.912;8.380;2024-01-15T15:11:28;6.40;57.20
28087;DHT22;15392;48.912;8.380;2024-01-15T15:14:14;6.40;57.20
28087;DHT22;15392;48.912;8.380;2024-01-15T15:17:00;6.40;57.10
28087;DHT22;15392;48.912;8.380;2024-01-15T15:19:46;6.40;57.00
28087;DHT22;15392;48.912;8.380;2024-01-15T15:22:32;6.40;56.80
28087;DHT22;15392;48.912;8.380;2024-01-15T15:25:19;6.40;56.80
28087;DHT22;15392;48.912;8.380;2024-01-15T15:28:05;6.40;56.90
28087;DHT22;15392;48.912;8.380;2024-01-15T15:30:51;6.40;56.60
28087;DHT22;15392;48.912;8.380;2024-01-15T15:33:37;6.40;56.60
28087;DHT22;15392;48.912;8.380;2024-01-15T15:36:23;6.40;56.60
28087;DHT22;15392;48.912;8.380;2024-01-15T15:39:09;6.40;56.40
28087;DHT22;15392;48.912;8.380;2024-01-15T15:41:55;6.40;56.40
28087;DHT22;15392;48.912;8.380;2024-01-15T15:44:42;6.50;56.30
28087;DHT22;15392;48.912;8.380;2024-01-15T15:47:35;6.40;56.10
28087;DHT22;15392;48.912;8.380;2024-01-15T15:50:21;6.40;56.00
28087;DHT22;15392;48.912;8.380;2024-01-15T15:53:07;6.40;56.00
28087;DHT22;15392;48.912;8.380;2024-01-15T15:55:56;6.40;55.80
28087;DHT22;15392;48.912;8.380;2024-01-15T15:58:42;6.40;55.70
28087;DHT22;15392;48.912;8.380;2024-01-15T16:01:28;6.40;55.70
28087;DHT22;15392;48.912;8.380;2024-01-15T16:04:14;6.40;55.70
28087;DHT22;15392;48.912;8.380;2024-01-15T16:07:00;6.40;55.70
28087;DHT22;15392;48.912;8.380;2024-01-15T16:09:47;6.40;55.60
28087;DHT22;15392;48.912;8.380;2024-01-15T16:12:33;6.40;55.60
28087;DHT22;15392;48.912;8.380;2024-01-15T16:15:20;6.30;55.50
28087;DHT22;15392;48.912;8.380;2024-01-15T16:18:07;6.40;55.50
28087;DHT22;15392;48.912;8.380;2024-01-15T16:20:53;6.40;55.40
28087;DHT22;15392;48.912;8.380;2024-01-15T16:23:39;6.40;55.40
28087;DHT22;15392;48.912;8.380;2024-01-15T16:26:25;6.40;55.50
28087;DHT22;15392;48.912;8.380;2024-01-15T16:29:12;6.40;55.60
28087;DHT22;15392;48.912;8.380;2024-01-15T16:31:58;6.30;55.50
28087;DHT22;15392;48.912;8.380;2024-01-15T16:34:44;6.30;55.60
28087;DHT22;15392;48.912;8.380;2024-01-15T16:37:30;6.30;55.70
28087;DHT22;15392;48.912;8.380;2024-01-15T16:40:16;6.30;55.60
28087;DHT22;15392;48.912;8.380;2024-01-15T16:43:02;6.30;55.50
28087;DHT22;15392;48.912;8.380;2024-01-15T16:45:49;6.30;55.40
28087;DHT22;15392;48.912;8.380;2024-01-15T16:48:35;6.30;55.40
28087;DHT22;15392;48.912;8.380;2024-01-15T16:51:21;6.30;55.40
28087;DHT22;15392;48.912;8.380;2024-01-15T16:54:07;6.30;55.40
28087;DHT22;15392;48.912;8.380;2024-01-15T16:56:53;6.30;55.40
28087;DHT22;15392;48.912;8.380;2024-01-15T16:59:39;6.30;55.30
28087;DHT22;15392;48.912;8.380;2024-01-15T17:02:25;6.30;55.30
28087;DHT22;15392;48.912;8.380;2024-01-15T17:05:11;6.30;55.20
28087;DHT22;15392;48.912;8.380;2024-01-15T17:07:57;6.30;55.20
28087;DHT22;15392;48.912;8.380;2024-01-15T17:10:43;6.30;55.20
28087;DHT22;15392;48.912;8.380;2024-01-15T17:13:29;6.30;55.20
28087;DHT22;15392;48.912;8.380;2024-01-15T17:16:15;6.30;55.20
28087;DHT22;15392;48.912;8.380;2024-01-15T17:19:04;6.30;55.10
28087;DHT22;15392;48.912;8.380;2024-01-15T17:21:52;6.30;55.10
28087;DHT22;15392;48.912;8.380;2024-01-15T17:24:39;6.40;55.20
28087;DHT22;15392;48.912;8.380;2024-01-15T17:27:25;6.30;55.00
28087;DHT22;15392;48.912;8.380;2024-01-15T17:30:11;6.40;54.90
28087;DHT22;15392;48.912;8.380;2024-01-15T17:33:00;6.40;54.80
28087;DHT22;15392;48.912;8.380;2024-01-15T17:35:53;6.30;54.80
28087;DHT22;15392;48.912;8.380;2024-01-15T17:38:42;6.30;54.60
28087;DHT22;15392;48.912;8.380;2024-01-15T17:41:28;6.30;54.60
28087;DHT22;15392;48.912;8.380;2024-01-15T17:44:18;6.30;54.50
28087;DHT22;15392;48.912;8.380;2024-01-15T17:47:05;6.30;54.40
28087;DHT22;15392;48.912;8.380;2024-01-15T17:49:51;6.30;54.30
28087;DHT22;15392;48.912;8.380;2024-01-15T17:52:40;6.30;54.30
28087;DHT22;15392;48.912;8.380;2024-01-15T17:55:26;6.30;54.20
28087;DHT22;15392;48.912;8.380;2024-01-15T17:58:12;6.30;54.20